createdAt,value
2023-12-17T06:52:28.188Z,102439.47
2023-12-17T06:54:54.688Z,102434.16
2023-12-17T06:57:21.415Z,102429.41
2023-12-17T06:59:48.080Z,102426.88
2023-12-17T07:02:14.641Z,102433.09
2023-12-17T07:04:41.171Z,102424.00
2023-12-17T07:07:07.715Z,102433.47
2023-12-17T07:09:34.730Z,102432.53
2023-12-17T07:12:01.783Z,102437.66
2023-12-17T07:14:28.369Z,102426.28
2023-12-17T07:16:59.703Z,102444.25
2023-12-17T07:19:26.760Z,102433.97
2023-12-17T07:21:53.451Z,102443.22
2023-12-17T07:24:20.122Z,102434.78
2023-12-17T07:26:47.096Z,102438.34
2023-12-17T07:29:13.614Z,102440.16
2023-12-17T07:31:40.133Z,102432.28
2023-12-17T07:34:06.726Z,102430.13
2023-12-17T07:36:33.626Z,102430.59
2023-12-17T07:39:00.258Z,102430.78
2023-12-17T07:41:26.886Z,102454.91
2023-12-17T07:43:53.409Z,102462.09
2023-12-17T07:46:19.969Z,102462.09
2023-12-17T07:48:48.745Z,102449.25
2023-12-17T07:51:15.357Z,102457.72
2023-12-17T07:53:41.945Z,102456.34
2023-12-17T07:56:09.113Z,102465.28
2023-12-17T07:58:35.666Z,102461.53
2023-12-17T08:01:02.284Z,102457.66
2023-12-17T08:03:29.054Z,102450.94
2023-12-17T08:05:55.716Z,102441.16
2023-12-17T08:08:22.346Z,102448.19
2023-12-17T08:10:48.853Z,102446.16
2023-12-17T08:13:18.503Z,102443.47
2023-12-17T08:15:46.266Z,102446.81
2023-12-17T08:18:12.986Z,102438.72
2023-12-17T08:20:39.508Z,102449.34
2023-12-17T08:23:06.005Z,102437.38
2023-12-17T08:25:34.842Z,102445.44
2023-12-17T08:28:01.362Z,102437.19
2023-12-17T08:30:28.993Z,102449.66
2023-12-17T08:32:55.597Z,102455.66
2023-12-17T08:35:22.292Z,102451.78
2023-12-17T08:37:48.788Z,102464.59
2023-12-17T08:40:15.718Z,102460.53
2023-12-17T08:42:44.525Z,102464.25
2023-12-17T08:45:11.337Z,102463.88
2023-12-17T08:47:38.049Z,102464.53
2023-12-17T08:50:04.949Z,102459.78
2023-12-17T08:52:33.729Z,102458.97
2023-12-17T08:55:03.566Z,102463.16
2023-12-17T08:57:30.198Z,102463.78
2023-12-17T08:59:56.840Z,102468.53
2023-12-17T09:02:23.375Z,102466.88
2023-12-17T09:04:52.712Z,102472.44
2023-12-17T09:07:19.799Z,102456.91
2023-12-17T09:09:46.361Z,102450.88
2023-12-17T09:12:12.883Z,102449.31
2023-12-17T09:14:39.418Z,102454.69
2023-12-17T09:17:05.914Z,102444.94
2023-12-17T09:19:32.509Z,102444.28
2023-12-17T09:21:59.629Z,102448.19
2023-12-17T09:24:26.599Z,102447.81
2023-12-17T09:26:53.232Z,102458.97
2023-12-17T09:29:19.761Z,102444.63
2023-12-17T09:31:46.290Z,102437.22
2023-12-17T09:34:14.757Z,102440.94
2023-12-17T09:36:42.360Z,102442.41
2023-12-17T09:39:09.155Z,102451.50
2023-12-17T09:41:35.741Z,102447.44
2023-12-17T09:44:02.287Z,102437.81
2023-12-17T09:46:28.821Z,102433.91
2023-12-17T09:48:55.421Z,102431.66
2023-12-17T09:51:22.821Z,102437.72
2023-12-17T09:53:49.492Z,102438.00
2023-12-17T09:56:16.130Z,102428.53
2023-12-17T09:58:42.703Z,102425.47
2023-12-17T10:01:09.309Z,102421.56
2023-12-17T10:03:36.804Z,102426.22
2023-12-17T10:06:03.633Z,102426.97
2023-12-17T10:08:31.100Z,102426.44
2023-12-17T10:10:57.630Z,102411.00
2023-12-17T10:13:24.286Z,102423.75
2023-12-17T10:15:51.457Z,102414.53
2023-12-17T10:18:18.630Z,102408.19
2023-12-17T10:20:45.555Z,102401.19
2023-12-17T10:23:12.280Z,102403.16
2023-12-17T10:25:39.172Z,102399.69
2023-12-17T10:28:06.113Z,102396.63
2023-12-17T10:30:33.635Z,102387.31
2023-12-17T10:33:04.173Z,102387.13
2023-12-17T10:35:31.840Z,102393.53
2023-12-17T10:37:58.333Z,102397.06
2023-12-17T10:40:25.508Z,102383.38
2023-12-17T10:42:52.169Z,102387.75
2023-12-17T10:45:20.055Z,102377.06
2023-12-17T10:48:00.289Z,102388.69
2023-12-17T10:50:28.064Z,102373.97
2023-12-17T10:52:54.784Z,102379.97
2023-12-17T10:55:22.102Z,102387.84
2023-12-17T10:57:52.009Z,102379.75
2023-12-17T11:00:22.614Z,102381.44
2023-12-17T11:02:51.500Z,102384.78
2023-12-17T11:05:18.132Z,102375.84
2023-12-17T11:07:44.931Z,102376.44
2023-12-17T11:10:12.446Z,102365.50
2023-12-17T11:12:42.177Z,102358.03
2023-12-17T11:15:09.156Z,102364.47
2023-12-17T11:17:37.580Z,102343.53
2023-12-17T11:20:04.617Z,102354.31
2023-12-17T11:22:34.505Z,102351.63
2023-12-17T11:25:01.057Z,102344.28
2023-12-17T11:27:27.873Z,102346.41
2023-12-17T11:29:56.714Z,102338.13
2023-12-17T11:32:28.204Z,102335.16
2023-12-17T11:34:55.601Z,102325.66
2023-12-17T11:37:23.256Z,102335.22
2023-12-17T11:39:50.752Z,102340.44
2023-12-17T11:42:18.498Z,102324.69
2023-12-17T11:44:45.925Z,102328.88
2023-12-17T11:47:15.995Z,102333.88
2023-12-17T11:49:44.083Z,102337.50
2023-12-17T11:52:15.186Z,102324.41
2023-12-17T11:54:44.928Z,102330.94
2023-12-17T11:57:21.453Z,102339.31
2023-12-17T11:59:48.025Z,102324.38
2023-12-17T12:02:18.344Z,102327.34
2023-12-17T12:04:45.786Z,102325.91
2023-12-17T12:07:12.749Z,102318.03
2023-12-17T12:09:39.578Z,102321.66
2023-12-17T12:12:19.160Z,102319.22
2023-12-17T12:14:46.873Z,102316.38
2023-12-17T12:17:31.915Z,102314.72
2023-12-17T12:19:58.518Z,102324.78
2023-12-17T12:22:29.049Z,102310.03
2023-12-17T12:24:56.710Z,102310.28
2023-12-17T12:27:23.564Z,102305.47
2023-12-17T12:29:50.167Z,102301.56
2023-12-17T12:32:36.961Z,102297.00
2023-12-17T12:35:04.891Z,102300.31
2023-12-17T12:37:32.232Z,102289.09
2023-12-17T12:40:03.206Z,102297.03
2023-12-17T12:42:31.631Z,102287.66
2023-12-17T12:44:58.397Z,102286.63
2023-12-17T12:47:26.003Z,102277.06
2023-12-17T12:49:52.679Z,102272.94
2023-12-17T12:52:20.803Z,102295.03
2023-12-17T12:54:49.890Z,102266.53
2023-12-17T12:57:17.447Z,102264.25
2023-12-17T12:59:44.486Z,102261.78
2023-12-17T13:02:11.327Z,102258.06
2023-12-17T13:04:38.306Z,102268.88
2023-12-17T13:07:04.979Z,102268.88
2023-12-17T13:09:31.627Z,102268.47
2023-12-17T13:11:58.204Z,102244.94
2023-12-17T13:14:24.809Z,102246.63
2023-12-17T13:16:54.337Z,102250.13
2023-12-17T13:19:23.768Z,102243.09
2023-12-17T13:21:51.123Z,102252.22
2023-12-17T13:24:17.872Z,102253.06
2023-12-17T13:26:44.757Z,102253.25
2023-12-17T13:29:11.355Z,102252.66
2023-12-17T13:31:37.942Z,102249.09
2023-12-17T13:34:04.839Z,102247.63
2023-12-17T13:36:32.978Z,102243.06
2023-12-17T13:39:00.053Z,102244.72
2023-12-17T13:41:27.970Z,102245.56
2023-12-17T13:43:54.822Z,102234.13
2023-12-17T13:46:21.409Z,102233.91
2023-12-17T13:48:48.294Z,102240.63
2023-12-17T13:51:15.075Z,102236.84
2023-12-17T13:53:41.742Z,102232.50
2023-12-17T13:56:08.431Z,102224.56
2023-12-17T13:58:35.223Z,102217.28
2023-12-17T14:01:01.937Z,102211.41
2023-12-17T14:03:29.297Z,102210.56
2023-12-17T14:05:56.340Z,102206.38
2023-12-17T14:08:23.163Z,102221.72
2023-12-17T14:10:49.956Z,102219.19
2023-12-17T14:13:18.424Z,102220.41
2023-12-17T14:15:45.005Z,102217.66
2023-12-17T14:18:11.657Z,102213.25
2023-12-17T14:20:38.680Z,102201.56
2023-12-17T14:23:05.263Z,102212.75
2023-12-17T14:25:39.322Z,102201.84
2023-12-17T14:28:08.780Z,102198.47
2023-12-17T14:30:35.565Z,102187.63
2023-12-17T14:33:02.277Z,102200.44
2023-12-17T14:35:28.901Z,102200.78
2023-12-17T14:37:55.491Z,102188.84
2023-12-17T14:40:22.160Z,102187.38
2023-12-17T14:42:48.786Z,102186.69
2023-12-17T14:45:15.550Z,102185.16
2023-12-17T14:47:42.338Z,102177.59
2023-12-17T14:50:09.437Z,102170.66
2023-12-17T14:52:36.082Z,102168.09
2023-12-17T14:55:02.980Z,102181.06
2023-12-17T14:57:29.686Z,102185.53
2023-12-17T14:59:56.308Z,102193.09
2023-12-17T15:02:23.673Z,102180.09
2023-12-17T15:04:50.323Z,102177.50
2023-12-17T15:07:17.919Z,102177.16
2023-12-17T15:09:44.745Z,102184.88
2023-12-17T15:12:11.658Z,102178.13
2023-12-17T15:14:38.453Z,102170.97
2023-12-17T15:17:07.179Z,102177.47
2023-12-17T15:19:33.925Z,102189.75
2023-12-17T15:22:00.595Z,102188.16
2023-12-17T15:24:27.232Z,102185.38
2023-12-17T15:26:53.897Z,102180.28
2023-12-17T15:29:21.047Z,102178.66
2023-12-17T15:31:47.862Z,102176.88
2023-12-17T15:34:14.532Z,102176.09
2023-12-17T15:36:41.819Z,102180.94
2023-12-17T15:39:08.451Z,102175.88
2023-12-17T15:41:35.076Z,102184.84
2023-12-17T15:44:01.715Z,102173.34
2023-12-17T15:46:29.988Z,102163.28
2023-12-17T15:48:57.233Z,102181.56
2023-12-17T15:51:26.240Z,102174.50
2023-12-17T15:53:55.569Z,102178.91
2023-12-17T15:56:22.499Z,102185.66
2023-12-17T15:58:49.703Z,102187.88
2023-12-17T16:01:16.393Z,102188.22
2023-12-17T16:03:43.920Z,102192.09
2023-12-17T16:06:11.751Z,102196.34
2023-12-17T16:08:38.850Z,102193.84
2023-12-17T16:11:06.040Z,102191.84
2023-12-17T16:13:33.397Z,102193.03
2023-12-17T16:16:00.077Z,102198.59
2023-12-17T16:18:26.881Z,102196.28
2023-12-17T16:20:53.681Z,102198.28
2023-12-17T16:23:20.471Z,102203.84
2023-12-17T16:25:47.089Z,102207.72
2023-12-17T16:28:13.963Z,102215.13
2023-12-17T16:30:45.522Z,102207.06
2023-12-17T16:33:12.887Z,102209.09
2023-12-17T16:35:39.558Z,102208.25
2023-12-17T16:38:06.179Z,102198.34
2023-12-17T16:40:32.771Z,102200.38
2023-12-17T16:42:59.952Z,102201.19
2023-12-17T16:45:26.612Z,102198.69
2023-12-17T16:47:53.346Z,102201.38
2023-12-17T16:50:20.072Z,102197.84
2023-12-17T16:52:46.654Z,102202.38
2023-12-17T16:55:13.509Z,102205.25
2023-12-17T16:57:41.233Z,102208.13
2023-12-17T17:00:10.741Z,102201.06
2023-12-17T17:02:37.449Z,102209.00
2023-12-17T17:05:04.546Z,102206.81
2023-12-17T17:07:31.217Z,102202.63
2023-12-17T17:09:57.861Z,102198.41
2023-12-17T17:12:24.487Z,102202.47
2023-12-17T17:14:51.227Z,102208.84
2023-12-17T17:17:17.810Z,102192.91
2023-12-17T17:19:45.403Z,102203.13
2023-12-17T17:22:12.111Z,102206.00
2023-12-17T17:24:38.728Z,102198.13
2023-12-17T17:27:06.109Z,102199.28
2023-12-17T17:29:32.738Z,102195.94
2023-12-17T17:31:59.280Z,102192.09
2023-12-17T17:34:26.356Z,102188.41
2023-12-17T17:36:53.068Z,102189.09
2023-12-17T17:39:22.030Z,102185.91
2023-12-17T17:41:51.829Z,102188.59
2023-12-17T17:44:18.779Z,102188.13
2023-12-17T17:46:45.813Z,102183.94
2023-12-17T17:49:12.505Z,102185.44
2023-12-17T17:51:39.564Z,102195.50
2023-12-17T17:54:06.260Z,102190.97
2023-12-17T17:56:32.896Z,102190.13
2023-12-17T17:58:59.583Z,102189.31
2023-12-17T18:01:26.680Z,102185.13
2023-12-17T18:03:53.883Z,102185.94
2023-12-17T18:06:21.724Z,102178.06
2023-12-17T18:08:48.415Z,102183.44
2023-12-17T18:11:17.780Z,102183.78
2023-12-17T18:13:44.710Z,102183.28
2023-12-17T18:16:11.296Z,102186.81
2023-12-17T18:18:38.015Z,102193.53
2023-12-17T18:21:06.231Z,102177.78
2023-12-17T18:23:32.836Z,102183.50
2023-12-17T18:25:59.430Z,102185.50
2023-12-17T18:28:27.576Z,102179.63
2023-12-17T18:30:54.228Z,102190.88
2023-12-17T18:33:20.966Z,102197.25
2023-12-17T18:35:47.616Z,102202.97
2023-12-17T18:38:14.227Z,102197.59
2023-12-17T18:40:40.924Z,102189.22
2023-12-17T18:43:07.544Z,102187.53
2023-12-17T18:45:34.339Z,102193.25
2023-12-17T18:48:01.228Z,102183.19
2023-12-17T18:50:27.944Z,102194.78
2023-12-17T18:52:54.523Z,102197.97
2023-12-17T18:55:21.699Z,102199.66
2023-12-17T18:57:48.559Z,102191.94
2023-12-17T19:00:15.454Z,102195.44
2023-12-17T19:02:42.763Z,102181.53
2023-12-17T19:05:09.744Z,102182.53
2023-12-17T19:07:36.769Z,102173.00
2023-12-17T19:10:03.520Z,102184.56
2023-12-17T19:12:30.266Z,102186.41
2023-12-17T19:14:56.965Z,102176.19
2023-12-17T19:17:23.669Z,102177.50
2023-12-17T19:19:50.483Z,102169.47
2023-12-17T19:22:19.235Z,102172.31
2023-12-17T19:24:45.872Z,102173.16
2023-12-17T19:27:12.554Z,102179.53
2023-12-17T19:29:39.171Z,102172.50
2023-12-17T19:32:06.564Z,102157.41
2023-12-17T19:34:37.752Z,102156.41
2023-12-17T19:37:04.522Z,102158.09
2023-12-17T19:39:31.207Z,102153.72
2023-12-17T19:41:57.945Z,102151.03
2023-12-17T19:44:24.576Z,102149.00
2023-12-17T19:46:51.218Z,102150.69
2023-12-17T19:49:17.924Z,102152.38
2023-12-17T19:51:44.616Z,102150.69
2023-12-17T19:54:11.354Z,102156.75
2023-12-17T19:56:37.955Z,102156.91
2023-12-17T19:59:04.836Z,102157.06
2023-12-17T20:01:31.409Z,102160.06
2023-12-17T20:03:58.336Z,102153.88
2023-12-17T20:06:24.993Z,102149.16
2023-12-17T20:08:52.461Z,102145.50
2023-12-17T20:11:19.239Z,102143.50
2023-12-17T20:13:45.883Z,102140.13
2023-12-17T20:16:12.601Z,102135.25
2023-12-17T20:18:40.595Z,102148.69
2023-12-17T20:21:07.459Z,102131.91
2023-12-17T20:23:34.167Z,102148.69
2023-12-17T20:26:00.850Z,102147.16
2023-12-17T20:28:27.464Z,102136.28
2023-12-17T20:30:54.189Z,102140.97
2023-12-17T20:33:22.246Z,102132.75
2023-12-17T20:35:48.943Z,102131.59
2023-12-17T20:38:16.218Z,102131.59
2023-12-17T20:40:43.503Z,102138.59
2023-12-17T20:43:10.157Z,102114.44
2023-12-17T20:45:36.908Z,102135.59
2023-12-17T20:48:07.056Z,102145.66
2023-12-17T20:50:33.896Z,102139.28
2023-12-17T20:53:00.617Z,102156.19
2023-12-17T20:55:27.406Z,102156.06
2023-12-17T20:57:54.961Z,102136.59
2023-12-17T21:00:21.676Z,102141.59
2023-12-17T21:02:48.380Z,102144.66
2023-12-17T21:05:15.504Z,102139.97
2023-12-17T21:07:46.340Z,102131.56
2023-12-17T21:10:13.415Z,102124.34
2023-12-17T21:12:40.314Z,102137.28
2023-12-17T21:15:07.421Z,102146.66
2023-12-17T21:17:34.220Z,102142.94
2023-12-17T21:20:00.896Z,102135.56
2023-12-17T21:22:30.230Z,102133.53
2023-12-17T21:24:56.956Z,102133.53
2023-12-17T21:27:27.049Z,102140.94
2023-12-17T21:29:57.591Z,102134.56
2023-12-17T21:32:26.252Z,102143.09
2023-12-17T21:34:53.354Z,102134.91
2023-12-17T21:37:20.970Z,102118.78
2023-12-17T21:39:47.987Z,102121.31
2023-12-17T21:42:14.772Z,102127.50
2023-12-17T21:44:41.631Z,102131.84
2023-12-17T21:47:09.334Z,102141.91
2023-12-17T21:49:37.505Z,102141.91
2023-12-17T21:52:07.349Z,102142.59
2023-12-17T21:54:35.788Z,102148.97
2023-12-17T21:57:17.278Z,102151.81
2023-12-17T21:59:45.831Z,102145.78
2023-12-17T22:02:12.584Z,102144.94
2023-12-17T22:04:39.526Z,102152.16
2023-12-17T22:07:07.517Z,102148.44
2023-12-17T22:09:34.277Z,102143.44
2023-12-17T22:12:01.040Z,102159.38
2023-12-17T22:14:27.960Z,102145.47
2023-12-17T22:16:54.559Z,102150.97
2023-12-17T22:19:21.570Z,102155.69
2023-12-17T22:21:49.132Z,102146.78
2023-12-17T22:24:15.665Z,102129.88
2023-12-17T22:26:42.299Z,102133.72
2023-12-17T22:29:08.895Z,102120.69
2023-12-17T22:31:35.531Z,102122.50
2023-12-17T22:34:02.244Z,102120.84
2023-12-17T22:36:28.845Z,102122.22
2023-12-17T22:38:55.444Z,102108.78
2023-12-17T22:41:22.922Z,102103.94
2023-12-17T22:43:49.444Z,102102.06
2023-12-17T22:46:20.319Z,102088.69
2023-12-17T22:48:47.029Z,102084.66
2023-12-17T22:51:14.712Z,102079.28
2023-12-17T22:53:41.544Z,102080.63
2023-12-17T22:56:08.179Z,102074.94
2023-12-17T22:58:34.669Z,102079.28
2023-12-17T23:01:01.359Z,102084.66
2023-12-17T23:03:28.019Z,102079.28
2023-12-17T23:05:54.563Z,102069.59
2023-12-17T23:08:21.588Z,102071.25
2023-12-17T23:10:48.108Z,102059.88
2023-12-17T23:13:14.627Z,102067.56
2023-12-17T23:15:41.165Z,102060.38
2023-12-17T23:18:07.807Z,102061.19
2023-12-17T23:20:34.370Z,102063.69
2023-12-17T23:23:00.845Z,102047.59
2023-12-17T23:25:28.032Z,102043.06
2023-12-17T23:27:54.508Z,102024.16
